• Join FlightAware (Why Join?)
  • Login
  • US Flag 
08:25AM EST


 

Airport Tracker/Info


-or-


 

Live Flight TrackerFlight Track Log ✈ SWA558 ✈ 11-Apr-2013 ✈ KTPA - KMHT

Flight Track Log - Related Links

Times and Time Zones

All times are in EDT time to prevent confusion due to time zone crossing. See the SWA558 flight status page for this flight to view local times or setup timezone preferences in your user account.

Time Position Orientation Groundspeed Altitude Reporting Facility
EDT Latitude Longitude Course Direction KTS MPH feet Rate Location/Type
09:56AM 27.9667 -82.5500 192° South 150 173 800  Level Tampa TRACON
09:58AM 27.9000 -82.5667 192° South 189 217 4,300 2,940 Climbing Tampa TRACON
09:59AM 27.8667 -82.6167 233° Southwest 228 262 7,600 3,000 Climbing Tampa TRACON
10:00AM 27.9500 -82.6333 350° North 301 346 10,400 2,400 Climbing Tampa TRACON
10:02AM 28.1975 -82.6006 North 371 427 16,500 2,460 Climbing Jacksonville Center
10:03AM 28.3081 -82.5908 North 376 433 19,300 2,640 Climbing Jacksonville Center
10:04AM 28.4186 -82.5833 North 387 445 21,800 2,520 Climbing Jacksonville Center
10:05AM 28.5356 -82.5878 358° North 404 465 24,400 2,220 Climbing Jacksonville Center
10:06AM 28.6567 -82.5897 359° North 416 479 26,300 1,980 Climbing Jacksonville Center
10:07AM 28.7631 -82.6014 355° North 424 488 28,400 1,980 Climbing Jacksonville Center
10:08AM 28.8842 -82.6200 352° North 429 494 30,300 1,860 Climbing Jacksonville Center
10:09AM 29.0053 -82.6361 353° North 429 494 32,200 1,920 Climbing Jacksonville Center
10:10AM 29.1264 -82.6500 354° North 429 494 34,200 1,860 Climbing Jacksonville Center
10:11AM 29.2456 -82.6617 355° North 429 494 36,000 900 Climbing Jacksonville Center
10:12AM 29.3664 -82.6233 15° North 429 494 36,000 -180 Level Jacksonville Center
10:13AM 29.4853 -82.5847 16° North 429 494 35,700 -540 Descending Jacksonville Center
10:14AM 29.6042 -82.5461 16° North 429 494 35,000 -360 Descending Jacksonville Center
10:15AM 29.7211 -82.5050 17° North 434 499 35,000  Level Jacksonville Center
10:16AM 29.8378 -82.4664 16° North 434 499 35,000  Level Jacksonville Center
10:17AM 29.9547 -82.4275 16° North 434 499 35,000  Level Jacksonville Center
10:18AM 30.0733 -82.3908 15° North 434 499 35,000  Level Jacksonville Center
10:19AM 30.1922 -82.3494 17° North 434 499 35,000  Level Jacksonville Center
10:20AM 30.3111 -82.3056 18° North 434 499 35,000 -60 Level Jacksonville Center
10:21AM 30.4278 -82.2639 17° North 439 505 34,900 -1,020 Descending Jacksonville Center
10:22AM 30.5467 -82.2269 15° North 439 505 33,000 -1,980 Descending Jacksonville Center
10:23AM 30.6614 -82.1897 16° North 429 494 31,000 -1,020 Descending Jacksonville Center
10:24AM 30.7758 -82.1503 16° North 429 494 31,000  Level Jacksonville Center
10:25AM 30.8925 -82.1131 15° North 429 494 31,000  Level Jacksonville Center
10:26AM 31.0175 -82.0683 17° North 429 494 31,000  Level Jacksonville Center
10:27AM 31.1342 -82.0286 16° North 434 499 31,000  Level Jacksonville Center
10:28AM 31.2508 -81.9886 16° North 434 499 31,000  Level Jacksonville Center
10:29AM 31.3717 -81.9436 18° North 434 499 31,000  Level Jacksonville Center
10:30AM 31.4861 -81.9058 16° North 434 499 31,000  Level Jacksonville Center
10:31AM 31.5944 -81.8681 17° North 434 499 31,000  Level Jacksonville Center
10:32AM 31.7214 -81.8228 17° North 434 499 31,000  Level Jacksonville Center
10:33AM 31.8381 -81.7822 16° North 434 499 31,000  Level Jacksonville Center
10:34AM 31.9442 -81.7467 16° North 434 499 31,000  Level Jacksonville Center
10:35AM 32.0733 -81.6986 17° North 439 505 31,000  Level Jacksonville Center
10:36AM 32.1794 -81.6628 16° North 439 505 31,000  Level Jacksonville Center
10:37AM 32.3083 -81.6169 17° North 439 505 31,000  Level Jacksonville Center
10:38AM 32.4269 -81.5758 16° North 439 505 31,000  Level Jacksonville Center
10:39AM 32.5331 -81.5372 17° North 439 505 31,000  Level Jacksonville Center
10:40AM 32.6578 -81.4861 19° North 438 504 31,000  Level Jacksonville Center
10:41AM 32.7611 -81.4056 33° Northeast 438 504 31,000  Level Jacksonville Center
10:42AM 32.8644 -81.3197 35° Northeast 438 504 31,000  Level Jacksonville Center
10:43AM 32.9697 -81.2361 34° Northeast 443 510 31,000  Level Jacksonville Center
10:44AM 33.0753 -81.1547 33° Northeast 443 510 31,000  Level Jacksonville Center
10:45AM 33.1783 -81.0683 35° Northeast 448 516 31,000  Level Jacksonville Center
10:46AM 33.2814 -80.9869 33° Northeast 448 516 31,000  Level Jacksonville Center
10:47AM 33.3844 -80.9000 35° Northeast 443 510 31,000  Level Jacksonville Center
10:48AM 33.4875 -80.8156 34° Northeast 443 510 31,000 -180 Level Jacksonville Center
10:49AM 33.5883 -80.7333 34° Northeast 438 504 30,700 -660 Descending Jacksonville Center
10:50AM 33.6911 -80.6486 34° Northeast 438 504 29,700 -900 Descending Jacksonville Center
10:51AM 33.7942 -80.5633 35° Northeast 443 510 29,000 -360 Descending Jacksonville Center
10:52AM 33.9008 -80.4756 34° Northeast 443 510 29,000  Level Jacksonville Center
10:53AM 34.0014 -80.3900 35° Northeast 443 510 29,000  Level Jacksonville Center
10:54AM 34.1061 -80.3044 34° Northeast 443 510 29,000  Level Jacksonville Center
10:56AM 34.2939 -80.1442 35° Northeast 435 501 29,000  Level Washington Center
10:57AM 34.3953 -80.0567 35° Northeast 441 507 29,000  Level Washington Center
10:58AM 34.4983 -79.9767 33° Northeast 441 507 29,000  Level Washington Center
10:59AM 34.5953 -79.8886 37° Northeast 441 507 29,000  Level Washington Center
11:00AM 34.6964 -79.8028 35° Northeast 441 507 29,000  Level Washington Center
11:01AM 34.7975 -79.7172 35° Northeast 441 507 29,000  Level Washington Center
11:02AM 34.9072 -79.6239 35° Northeast 441 507 29,000  Level Washington Center
11:03AM 35.0061 -79.5375 36° Northeast 442 509 29,000  Level Washington Center
11:04AM 35.1047 -79.4536 35° Northeast 437 503 29,000  Level Washington Center
11:05AM 35.2014 -79.3692 36° Northeast 437 503 29,000  Level Washington Center
11:06AM 35.3000 -79.2822 36° Northeast 437 503 29,000  Level Washington Center
11:07AM 35.3986 -79.1975 35° Northeast 437 503 29,000  Level Washington Center
11:08AM 35.4972 -79.1103 36° Northeast 437 503 29,000  Level Washington Center
11:09AM 35.5914 -79.0275 36° Northeast 431 496 29,000  Level Washington Center
11:10AM 35.6878 -78.9422 36° Northeast 431 496 29,000  Level Washington Center
11:11AM 35.7861 -78.8542 36° Northeast 431 496 29,000  Level Washington Center
11:12AM 35.8844 -78.7658 36° Northeast 431 496 29,000  Level Washington Center
11:13AM 35.9828 -78.6800 35° Northeast 431 496 29,000  Level Washington Center
11:14AM 36.0831 -78.5889 36° Northeast 437 503 29,000  Level Washington Center
11:15AM 36.1792 -78.5025 36° Northeast 437 503 29,000  Level Washington Center
11:16AM 36.2772 -78.4133 36° Northeast 437 503 29,000  Level Washington Center
11:17AM 36.3794 -78.3242 35° Northeast 442 509 29,000  Level Washington Center
11:18AM 36.4753 -78.2344 37° Northeast 442 509 29,000  Level Washington Center
11:19AM 36.5733 -78.1472 36° Northeast 442 509 29,000  Level Washington Center
11:20AM 36.6606 -78.0672 36° Northeast 442 509 29,000  Level Washington Center
11:21AM 36.7561 -77.9744 38° Northeast 442 509 29,000  Level Washington Center
11:22AM 36.8561 -77.8867 35° Northeast 442 509 29,000  Level Washington Center
11:23AM 36.9517 -77.7933 38° Northeast 442 509 29,000  Level Washington Center
11:24AM 37.0492 -77.7050 36° Northeast 442 509 29,000  Level Washington Center
11:25AM 37.1447 -77.6139 37° Northeast 442 509 29,000  Level Washington Center
11:26AM 37.2442 -77.5225 36° Northeast 442 509 29,000  Level Washington Center
11:27AM 37.3417 -77.4308 37° Northeast 442 509 29,000  Level Washington Center
11:28AM 37.4408 -77.3392 36° Northeast 442 509 29,000  Level Washington Center
11:29AM 37.5383 -77.2444 38° Northeast 442 509 29,000  Level Washington Center
11:30AM 37.6375 -77.1522 36° Northeast 442 509 29,000  Level Washington Center
11:31AM 37.7367 -77.0569 37° Northeast 442 509 29,000  Level Washington Center
11:32AM 37.8358 -76.9644 36° Northeast 442 509 29,000  Level Washington Center
11:33AM 37.9350 -76.8686 37° Northeast 442 509 29,000  Level Washington Center
11:34AM 38.0339 -76.7728 37° Northeast 442 509 29,000  Level Washington Center
11:35AM 38.1308 -76.6794 37° Northeast 442 509 29,000  Level Washington Center
11:36AM 38.2317 -76.5831 37° Northeast 442 509 29,000  Level Washington Center
11:37AM 38.3325 -76.4836 38° Northeast 442 509 29,000  Level Washington Center
11:38AM 38.4292 -76.3894 37° Northeast 442 509 29,000  Level Washington Center
11:39AM 38.5297 -76.2922 37° Northeast 442 509 29,000  Level Washington Center
11:40AM 38.6283 -76.1922 38° Northeast 442 509 29,000  Level Washington Center
11:41AM 38.7289 -76.0972 36° Northeast 442 509 29,000  Level Washington Center
11:42AM 38.8272 -75.9994 38° Northeast 442 509 29,000  Level Washington Center
11:43AM 38.9253 -75.9039 37° Northeast 442 509 29,000  Level Washington Center
11:44AM 39.0256 -75.8053 37° Northeast 442 509 29,000  Level Washington Center
11:45AM 39.1239 -75.7094 37° Northeast 442 509 29,000  Level Washington Center
11:46AM 39.2258 -75.6078 38° Northeast 442 509 29,000  Level Washington Center
11:47AM 39.3258 -75.5083 38° Northeast 442 509 29,000  Level Washington Center
11:48AM 39.4258 -75.4061 38° Northeast 448 516 29,000  Level Washington Center
11:49AM 39.5256 -75.3036 38° Northeast 448 516 29,000  Level Washington Center
11:50AM 39.6253 -75.2036 38° Northeast 448 516 29,000  Level Washington Center
11:51AM 39.6778 -75.1539 36° Northeast 443 510 29,000  Level New York Center
11:52AM 39.7625 -75.0594 41° Northeast 448 516 29,000  Level New York Center
11:53AM 39.8642 -74.9575 38° Northeast 453 521 29,000  Level New York Center
11:54AM 39.9744 -74.8422 39° Northeast 459 528 29,000  Level New York Center
11:55AM 40.0736 -74.7503 35° Northeast 450 518 29,000  Level New York Center
11:56AM 40.1661 -74.6633 36° Northeast 450 518 29,000  Level New York Center
11:57AM 40.2822 -74.5500 37° Northeast 461 531 29,000  Level New York Center
11:58AM 40.3856 -74.4494 37° Northeast 461 531 29,000  Level New York Center
12:00PM 40.5556 -74.2892 36° Northeast 476 548 29,000  Level Boston Center
12:01PM 40.6592 -74.1883 36° Northeast 470 541 29,000  Level Boston Center
12:02PM 40.7944 -74.0631 35° Northeast 464 534 29,000  Level Boston Center
12:03PM 40.9061 -73.9833 28° Northeast 454 522 29,000  Level Boston Center
12:04PM 41.0256 -73.9231 21° North 449 517 29,000  Level Boston Center
12:05PM 41.1450 -73.8678 19° North 449 517 29,000  Level Boston Center
12:06PM 41.2647 -73.8069 21° North 454 522 29,000  Level Boston Center
12:07PM 41.3842 -73.7486 20° North 449 517 29,000  Level Boston Center
12:08PM 41.5244 -73.6794 20° North 449 517 29,000  Level Boston Center
12:09PM 41.6397 -73.6233 20° North 444 511 29,000  Level Boston Center
12:10PM 41.7592 -73.5672 19° North 450 518 29,000  Level Boston Center
12:11PM 41.8764 -73.5081 21° North 450 518 29,000  Level Boston Center
12:12PM 41.9936 -73.4483 21° North 450 518 29,000  Level Boston Center
12:13PM 42.0922 -73.3969 21° North 451 519 29,000 -840 Level Boston Center
12:14PM 42.2097 -73.2894 34° Northeast 446 513 27,400 -1,560 Descending Boston Center
12:15PM 42.2919 -73.1558 50° Northeast 444 511 25,900 -1,560 Descending Boston Center
12:16PM 42.3781 -73.0050 52° Northeast 478 550 24,300 -1,620 Descending Boston Center
12:17PM 42.4581 -72.8650 52° Northeast 478 550 22,700 -1,920 Descending Boston Center
12:18PM 42.5375 -72.7303 51° Northeast 462 532 20,600 -2,160 Descending Boston Center
12:19PM 42.6067 -72.6178 50° Northeast 442 509 18,500 -2,160 Descending Boston Center
12:20PM 42.6797 -72.4939 51° Northeast 431 496 16,300 -2,280 Descending Boston Center
12:21PM 42.7506 -72.3694 52° Northeast 426 490 14,000 -2,520 Descending Boston Center
12:22PM 42.7983 -72.2108 68° East 405 466 11,400 -1,920 Descending Boston Center
12:23PM 42.8125 -72.0581 83° East 400 460 10,200 -1,140 Descending Boston Center
12:24PM 42.8369 -71.9275 76° East 368 423 9,100 -1,020 Descending Boston Center
12:25PM 42.8697 -71.8142 68° East 333 383 8,200 -1,320 Descending Boston Center
12:26PM 42.9025 -71.7089 67° East 299 344 6,600 -1,620 Descending Boston Center
12:27PM 42.9122 -71.6122 82° East 278 320 5,100 -840 Descending Boston Center
12:28PM 42.8678 -71.5336 128° Southeast 248 285 5,000 -360 Descending Boston Center
12:29PM 42.8361 -71.4717 125° Southeast 236 272 4,400 -720 Descending Boston Center
12:30PM 42.7856 -71.4272 147° Southeast 214 246 3,600 -720 Descending Boston Center
12:31PM 42.7458 -71.3942 149° Southeast 195 224 3,000 -360 Descending Boston Center
12:32PM 42.7831 -71.3622 32° Northeast 106 122 3,000 -360 Level Boston Center
12:33PM 42.8247 -71.3728 349° North 141 162 2,400 -840 Descending Boston Center
12:34PM 42.8667 -71.3978 336° Northwest 162 186 1,400 -840 Descending Boston Center
12:35PM 42.8981 -71.4142 339° North 136 157 800 600 Descending Boston Center
12:36PM 42.9983 -71.4294 354° North 131 151 2,700 1,920 Climbing Boston Center
12:38PM 42.9328 -71.4358 316° Northwest  Level Estimated